• Join FlightAware (Why Join?)
  • Login
  • US Flag 
04:46PM EDT


 

Airport Tracker/Info


-or-


 

Live Flight TrackerFlight Track Log ✈ UAL4336 ✈ 01-May-2013 ✈ KCMH - KIAH

Flight Track Log - Related Links

Times and Time Zones

All times are in EDT time to prevent confusion due to time zone crossing. See the UAL4336 flight status page for this flight to view local times or setup timezone preferences in your user account.

Time Position Orientation Groundspeed Altitude Reporting Facility
EDT Latitude Longitude Course Direction KTS MPH feet Rate Location/Type
06:30AM 39.9925 -82.8708 270° West 148 170 1,300  Level Indianapolis Center
06:31AM 39.9914 -82.7972 91° East 200 230 3,200 1,560 Climbing Indianapolis Center
06:32AM 39.9514 -82.7656 149° Southeast 237 273 4,700 1,380 Climbing Indianapolis Center
06:34AM 40.0000 -83.4370 270° West  Level FlightAware Approximate
06:34AM 39.9369 -82.8589 259° West 253 291 6,100  Level Indianapolis Center
06:35AM 40.0000 -83.5760 270° West  Level FlightAware Approximate
06:35AM 39.9308 -82.9603 266° West 276 318 7,900  Level Indianapolis Center
06:36AM 40.0000 -83.7150 270° West  Level FlightAware Approximate
06:36AM 39.9244 -83.0686 266° West 295 339 9,900  Level Indianapolis Center
06:37AM 39.9164 -83.1797 265° West 303 349 11,100 840 Climbing Indianapolis Center
06:38AM 39.9072 -83.3100 265° West 353 406 11,600 780 Climbing Indianapolis Center
06:39AM 39.8714 -83.4378 250° West 381 438 12,800 1,140 Climbing Indianapolis Center
06:40AM 39.8239 -83.5517 242° Southwest 382 440 14,000 1,140 Climbing Indianapolis Center
06:41AM 39.7736 -83.6719 241° Southwest 377 434 15,200 1,200 Climbing Indianapolis Center
06:42AM 39.7228 -83.7931 241° Southwest 380 437 16,500 1,020 Climbing Indianapolis Center
06:43AM 39.6711 -83.9139 241° Southwest 380 437 17,300 840 Climbing Indianapolis Center
06:44AM 39.6075 -84.0258 234° Southwest 383 441 18,300 840 Climbing Indianapolis Center
06:45AM 39.5375 -84.1331 230° Southwest 386 444 19,100 840 Climbing Indianapolis Center
06:46AM 39.4656 -84.2411 229° Southwest 391 450 20,000 780 Climbing Indianapolis Center
06:47AM 39.4022 -84.3592 235° Southwest 398 458 20,700 720 Climbing Indianapolis Center
06:48AM 39.3489 -84.4897 242° Southwest 405 466 21,500 900 Climbing Indianapolis Center
06:49AM 39.2956 -84.6194 242° Southwest 407 468 22,600 1,140 Climbing Indianapolis Center
06:50AM 39.2419 -84.7478 242° Southwest 403 464 23,900 1,080 Climbing Indianapolis Center
06:51AM 39.1839 -84.8897 242° Southwest 396 456 24,800 900 Climbing Indianapolis Center
06:52AM 39.1306 -85.0158 241° Southwest 398 458 25,800 960 Climbing Indianapolis Center
06:53AM 39.0786 -85.1411 242° Southwest 395 455 26,800 780 Climbing Indianapolis Center
06:54AM 39.0256 -85.2650 241° Southwest 393 452 27,400 660 Climbing Indianapolis Center
06:55AM 38.9731 -85.3908 242° Southwest 395 455 28,200 960 Climbing Indianapolis Center
06:56AM 38.9203 -85.5150 241° Southwest 393 452 29,400 1,020 Climbing Indianapolis Center
06:57AM 38.8672 -85.6369 241° Southwest 389 448 30,300 900 Climbing Indianapolis Center
06:58AM 38.8158 -85.7581 241° Southwest 385 443 31,300 1,080 Climbing Indianapolis Center
06:59AM 38.7644 -85.8786 241° Southwest 382 440 32,600 1,020 Climbing Indianapolis Center
07:00AM 38.7153 -85.9917 241° Southwest 376 433 33,400 840 Climbing Indianapolis Center
07:01AM 38.6647 -86.1086 241° Southwest 375 432 34,400 840 Climbing Indianapolis Center
07:02AM 38.6147 -86.2242 241° Southwest 372 428 35,200 720 Climbing Indianapolis Center
07:03AM 38.5650 -86.3386 241° Southwest 366 421 35,900 360 Climbing Indianapolis Center
07:04AM 38.5097 -86.4503 238° Southwest 373 429 36,000  Climbing Indianapolis Center
07:05AM 38.4386 -86.5547 229° Southwest 384 442 36,000  Level Indianapolis Center
07:06AM 38.3658 -86.6650 230° Southwest 400 460 36,000  Level Indianapolis Center
07:07AM 38.2897 -86.7772 229° Southwest 411 473 36,000  Level Indianapolis Center
07:08AM 38.2114 -86.8917 229° Southwest 419 482 36,000  Level Indianapolis Center
07:09AM 38.1322 -87.0108 230° Southwest 429 494 36,000  Level Indianapolis Center
07:10AM 38.0539 -87.1283 230° Southwest 429 494 36,000  Level Indianapolis Center
07:11AM 37.9758 -87.2428 229° Southwest 426 490 36,000  Level Indianapolis Center
07:12AM 37.8981 -87.3567 229° Southwest 424 488 36,000  Level Indianapolis Center
07:13AM 37.8217 -87.4681 229° Southwest 420 483 36,000  Level Indianapolis Center
07:14AM 37.7433 -87.5847 230° Southwest 412 474 36,000  Level Indianapolis Center
07:15AM 37.6675 -87.6928 228° Southwest 409 471 36,000  Level Indianapolis Center
07:16AM 37.5925 -87.8019 229° Southwest 409 471 36,000  Level Indianapolis Center
07:16AM 37.5750 -87.8397 240° Southwest 417 480 36,000  Level Memphis Center
07:17AM 37.5000 -87.9469 229° Southwest 412 474 36,000  Level Memphis Center
07:18AM 37.4186 -88.0408 223° Southwest 404 465 36,000  Level Memphis Center
07:19AM 37.3264 -88.1294 217° Southwest 409 471 36,000  Level Memphis Center
07:20AM 37.2342 -88.2156 217° Southwest 415 478 36,000  Level Memphis Center
07:21AM 37.1419 -88.3039 217° Southwest 420 483 36,000  Level Memphis Center
07:22AM 37.0497 -88.3944 218° Southwest 426 490 36,000  Level Memphis Center
07:23AM 36.9572 -88.4825 217° Southwest 431 496 36,000  Level Memphis Center
07:24AM 36.8647 -88.5703 217° Southwest 431 496 36,000  Level Memphis Center
07:25AM 36.7722 -88.6578 217° Southwest 431 496 36,000  Level Memphis Center
07:26AM 36.6797 -88.7425 216° Southwest 431 496 36,000  Level Memphis Center
07:27AM 36.5869 -88.8297 217° Southwest 431 496 36,000  Level Memphis Center
07:28AM 36.4961 -88.9139 217° Southwest 431 496 36,000  Level Memphis Center
07:29AM 36.4056 -88.9981 217° Southwest 426 490 36,000  Level Memphis Center
07:30AM 36.3144 -89.0769 215° Southwest 419 482 36,000  Level Memphis Center
07:31AM 36.2236 -89.1633 218° Southwest 419 482 36,000  Level Memphis Center
07:32AM 36.1286 -89.2572 219° Southwest 413 475 36,000  Level Memphis Center
07:33AM 36.0417 -89.3378 217° Southwest 407 468 36,000  Level Memphis Center
07:34AM 35.9508 -89.4211 217° Southwest 407 468 36,000  Level Memphis Center
07:35AM 35.8700 -89.5142 223° Southwest 407 468 36,000  Level Memphis Center
07:36AM 35.7936 -89.6122 226° Southwest 407 468 36,000  Level Memphis Center
07:37AM 35.7128 -89.7103 225° Southwest 402 463 36,000  Level Memphis Center
07:38AM 35.6486 -89.7975 228° Southwest 395 455 36,000  Level Memphis Center
07:39AM 35.5675 -89.8978 225° Southwest 400 460 36,000  Level Memphis Center
07:40AM 35.4886 -89.9975 226° Southwest 406 467 36,000  Level Memphis Center
07:41AM 35.4075 -90.0972 225° Southwest 406 467 36,000  Level Memphis Center
07:42AM 35.3264 -90.1967 225° Southwest 406 467 36,000  Level Memphis Center
07:43AM 35.2453 -90.2961 225° Southwest 406 467 36,000  Level Memphis Center
07:44AM 35.1639 -90.3925 224° Southwest 406 467 36,000  Level Memphis Center
07:45AM 35.0844 -90.4917 226° Southwest 406 467 36,000  Level Memphis Center
07:46AM 34.9967 -90.6006 225° Southwest 406 467 36,000  Level Memphis Center
07:47AM 34.9150 -90.6964 224° Southwest 406 467 36,000  Level Memphis Center
07:48AM 34.8356 -90.7897 224° Southwest 406 467 36,000  Level Memphis Center
07:49AM 34.7517 -90.8906 225° Southwest 406 467 36,000  Level Memphis Center
07:50AM 34.6742 -90.9858 225° Southwest 406 467 36,000  Level Memphis Center
07:51AM 34.5942 -91.0836 225° Southwest 406 467 36,000  Level Memphis Center
07:52AM 34.5103 -91.1789 223° Southwest 406 467 36,000  Level Memphis Center
07:53AM 34.4281 -91.2736 224° Southwest 406 467 36,000  Level Memphis Center
07:54AM 34.3522 -91.3711 227° Southwest 406 467 36,000  Level Memphis Center
07:55AM 34.2700 -91.4681 224° Southwest 406 467 36,000  Level Memphis Center
07:56AM 34.1836 -91.5622 222° Southwest 413 475 36,000  Level Memphis Center
07:57AM 34.1139 -91.6492 226° Southwest 413 475 36,000  Level Memphis Center
07:58AM 34.0356 -91.7458 226° Southwest 405 466 36,000  Level Memphis Center
07:59AM 33.9511 -91.8447 224° Southwest 405 466 36,000  Level Memphis Center
08:01AM 33.8125 -91.9992 223° Southwest 416 479 36,000  Level Fort Worth Center
08:02AM 33.7311 -92.0964 225° Southwest 416 479 36,000  Level Fort Worth Center
08:03AM 33.6383 -92.1769 216° Southwest 416 479 36,000  Level Fort Worth Center
08:04AM 33.5272 -92.2108 194° South 414 476 36,000  Level Fort Worth Center
08:05AM 33.4158 -92.2425 193° South 408 470 36,000  Level Fort Worth Center
08:06AM 33.3067 -92.2786 195° South 408 470 36,000  Level Fort Worth Center
08:07AM 33.1911 -92.3100 193° South 413 475 36,000  Level Fort Worth Center
08:08AM 33.0736 -92.3442 194° South 423 487 36,000  Level Fort Worth Center
08:09AM 32.9644 -92.3800 195° South 423 487 36,000  Level Fort Worth Center
08:10AM 32.8489 -92.4136 194° South 429 494 36,000  Level Fort Worth Center
08:11AM 32.7375 -92.4472 194° South 429 494 36,000  Level Fort Worth Center
08:12AM 32.6197 -92.4808 194° South 429 494 36,000  Level Fort Worth Center
08:14AM 32.4014 -92.5481 195° South 431 496 36,000  Level Houston Center
08:15AM 32.2853 -92.5842 195° South 432 497 36,000  Level Houston Center
08:16AM 32.1678 -92.6186 194° South 436 502 36,000  Level Houston Center
08:17AM 32.0500 -92.6544 194° South 437 503 36,000  Level Houston Center
08:18AM 31.9500 -92.7361 215° Southwest 444 511 36,000  Level Houston Center
08:19AM 31.8553 -92.8258 219° Southwest 441 507 36,000  Level Houston Center
08:20AM 31.7608 -92.9156 219° Southwest 439 505 36,000  Level Houston Center
08:21AM 31.6478 -93.0203 218° Southwest 431 496 36,000  Level Houston Center
08:22AM 31.5567 -93.1081 219° Southwest 428 493 36,000  Level Houston Center
08:23AM 31.4647 -93.1933 218° Southwest 423 487 36,000  Level Houston Center
08:24AM 31.3717 -93.2811 219° Southwest 428 493 36,000 -540 Level Houston Center
08:25AM 31.2778 -93.3697 219° Southwest 433 498 35,000 -1,080 Descending Houston Center
08:26AM 31.1819 -93.4583 218° Southwest 437 503 33,900 -1,080 Descending Houston Center
08:27AM 31.0864 -93.5464 218° Southwest 439 505 32,800 -1,920 Descending Houston Center
08:28AM 30.9694 -93.6550 219° Southwest 446 513 30,000 -2,760 Descending Houston Center
08:29AM 30.8708 -93.7469 219° Southwest 454 522 27,200 -2,700 Descending Houston Center
08:30AM 30.7706 -93.8394 218° Southwest 459 528 24,500 -2,460 Descending Houston Center
08:31AM 30.6733 -93.9294 219° Southwest 456 525 22,200 -2,220 Descending Houston Center
08:32AM 30.5781 -94.0161 218° Southwest 436 502 20,000 -2,400 Descending Houston Center
08:33AM 30.4931 -94.0953 219° Southwest 422 486 17,700 -2,460 Descending Houston Center
08:34AM 30.4044 -94.1750 218° Southwest 419 482 15,700 -2,340 Descending Houston Center
08:34AM 30.3806 -94.1975 219° Southwest 419 482 15,000 -2,220 Descending Houston Center
08:35AM 30.3178 -94.2544 218° Southwest 410 472 13,500 -2,160 Descending Houston Center
08:35AM 30.2928 -94.2769 218° Southwest 406 467 12,800 -1,500 Descending Houston Center
08:36AM 30.2328 -94.3308 218° Southwest 355 409 12,000 -900 Descending Houston Center
08:36AM 30.2147 -94.3472 218° Southwest 363 418 11,900 -840 Descending Houston Center
08:37AM 30.1800 -94.4128 239° Southwest 294 338 11,200 -1,020 Descending Houston Center
08:37AM 30.1750 -94.4317 253° West 301 346 10,900 -1,080 Descending Houston Center
08:38AM 30.1731 -94.5128 268° West 276 318 10,000 -1,140 Descending Houston Center
08:39AM 30.1797 -94.6039 275° West 279 321 8,900 -1,080 Descending Houston Center
08:40AM 30.1353 -94.6653 230° Southwest 277 319 7,900 -1,080 Descending Houston Center
08:41AM 30.1242 -94.6803 229° Southwest 277 319 7,600 -1,920 Descending Houston Center
08:41AM 30.0769 -94.7356 225° Southwest 271 312 5,800 -2,160 Descending Houston Center
08:43AM 30.0522 -94.8242 252° West 264 304 3,200 -1,440 Descending Houston Center
08:43AM 30.0369 -94.8878 255° West 256 295 3,000 -240 Descending Houston Center
08:44AM 30.0339 -94.9028 257° West 257 296 3,000 -600 Level Houston Center
08:44AM 30.0150 -94.9678 251° West 259 298 2,400 -720 Descending Houston Center
08:45AM 30.0114 -94.9814 253° West 258 297 2,300 -420 Descending Houston Center
08:45AM 30.0075 -95.0461 266° West 237 273 2,000 -300 Descending Houston Center
08:46AM 30.0078 -95.0572 272° West 245 282 2,000  Level Houston Center
08:46AM 30.0078 -95.1136 270° West 192 221 2,000  Level Houston Center
08:47AM 30.0078 -95.1328 270° West 214 246 2,000  Level Houston Center
08:47AM 30.0078 -95.1811 270° West 218 251 2,000  Level Houston Center
08:48AM 30.0081 -95.1978 271° West 206 237 2,000 -420 Level Houston Center
08:48AM 30.0069 -95.2417 268° West 173 199 1,600 -600 Descending Houston Center
08:49AM 30.0078 -95.2572 274° West 197 227 1,400 -840 Descending Houston Center
08:49AM 30.0072 -95.2897 269° West 144 166 800 -840 Descending Houston Center
08:50AM 30.0078 -95.2994 274° West 159 183 600 -360 Descending Houston Center
08:51AM 30.0072 -95.3439 269° West 153 176 300 -300 Descending Houston Center
08:53AM 29.9844 -95.3414 175° South  Level Estimated